sensor_id;sensor_type;location;lat;lon;timestamp;temperature;humidity
23267;DHT22;11802;53.160;8.214;2023-05-10T00:00:32;15.00;99.90
23267;DHT22;11802;53.160;8.214;2023-05-10T00:02:58;15.00;99.90
23267;DHT22;11802;53.160;8.214;2023-05-10T00:05:23;15.00;99.90
23267;DHT22;11802;53.160;8.214;2023-05-10T00:07:49;15.00;99.90
23267;DHT22;11802;53.160;8.214;2023-05-10T00:10:14;15.00;99.90
23267;DHT22;11802;53.160;8.214;2023-05-10T00:12:40;15.00;99.90
23267;DHT22;11802;53.160;8.214;2023-05-10T00:15:06;15.00;99.90
23267;DHT22;11802;53.160;8.214;2023-05-10T00:17:32;15.00;99.90
23267;DHT22;11802;53.160;8.214;2023-05-10T00:19:57;15.00;99.90
23267;DHT22;11802;53.160;8.214;2023-05-10T00:22:23;15.00;99.90
23267;DHT22;11802;53.160;8.214;2023-05-10T00:24:48;15.00;99.90
23267;DHT22;11802;53.160;8.214;2023-05-10T00:27:14;15.10;99.90
23267;DHT22;11802;53.160;8.214;2023-05-10T00:29:40;15.00;99.90
23267;DHT22;11802;53.160;8.214;2023-05-10T00:32:05;15.10;99.90
23267;DHT22;11802;53.160;8.214;2023-05-10T00:34:31;15.10;99.90
23267;DHT22;11802;53.160;8.214;2023-05-10T00:36:57;15.10;99.90
23267;DHT22;11802;53.160;8.214;2023-05-10T00:39:22;15.10;99.90
23267;DHT22;11802;53.160;8.214;2023-05-10T00:41:48;15.10;99.90
23267;DHT22;11802;53.160;8.214;2023-05-10T00:44:13;15.10;99.90
23267;DHT22;11802;53.160;8.214;2023-05-10T00:46:39;15.10;99.90
23267;DHT22;11802;53.160;8.214;2023-05-10T00:49:05;15.10;99.90
23267;DHT22;11802;53.160;8.214;2023-05-10T00:51:32;15.10;99.90
23267;DHT22;11802;53.160;8.214;2023-05-10T00:53:58;15.10;99.90
23267;DHT22;11802;53.160;8.214;2023-05-10T00:56:25;15.10;99.90
23267;DHT22;11802;53.160;8.214;2023-05-10T00:58:50;15.10;99.90
23267;DHT22;11802;53.160;8.214;2023-05-10T01:01:16;15.10;99.90
23267;DHT22;11802;53.160;8.214;2023-05-10T01:03:42;15.00;99.90
23267;DHT22;11802;53.160;8.214;2023-05-10T01:06:08;15.00;99.90
23267;DHT22;11802;53.160;8.214;2023-05-10T01:08:35;15.00;99.90
23267;DHT22;11802;53.160;8.214;2023-05-10T01:11:01;15.00;99.90
23267;DHT22;11802;53.160;8.214;2023-05-10T01:13:36;15.00;99.90
23267;DHT22;11802;53.160;8.214;2023-05-10T01:16:03;14.90;99.90
23267;DHT22;11802;53.160;8.214;2023-05-10T01:18:30;14.90;99.90
23267;DHT22;11802;53.160;8.214;2023-05-10T01:21:31;14.90;99.90
23267;DHT22;11802;53.160;8.214;2023-05-10T01:30:05;14.80;99.90
23267;DHT22;11802;53.160;8.214;2023-05-10T01:32:44;14.80;99.90
23267;DHT22;11802;53.160;8.214;2023-05-10T01:35:37;14.80;99.90
23267;DHT22;11802;53.160;8.214;2023-05-10T01:38:19;14.80;99.90
23267;DHT22;11802;53.160;8.214;2023-05-10T01:43:42;14.70;99.90
23267;DHT22;11802;53.160;8.214;2023-05-10T01:46:14;14.70;99.90
23267;DHT22;11802;53.160;8.214;2023-05-10T01:48:48;14.70;99.90
23267;DHT22;11802;53.160;8.214;2023-05-10T01:51:19;14.70;99.90
23267;DHT22;11802;53.160;8.214;2023-05-10T01:53:47;14.70;99.90
23267;DHT22;11802;53.160;8.214;2023-05-10T01:56:14;14.70;99.90
23267;DHT22;11802;53.160;8.214;2023-05-10T01:58:43;14.70;99.90
23267;DHT22;11802;53.160;8.214;2023-05-10T02:01:11;14.60;99.90
23267;DHT22;11802;53.160;8.214;2023-05-10T02:03:38;14.70;99.90
23267;DHT22;11802;53.160;8.214;2023-05-10T02:06:04;14.60;99.90
23267;DHT22;11802;53.160;8.214;2023-05-10T02:08:31;14.60;99.90
23267;DHT22;11802;53.160;8.214;2023-05-10T02:10:58;14.60;99.90
23267;DHT22;11802;53.160;8.214;2023-05-10T02:13:26;14.60;99.90
23267;DHT22;11802;53.160;8.214;2023-05-10T02:15:53;14.60;99.90
23267;DHT22;11802;53.160;8.214;2023-05-10T02:18:20;14.60;99.90
23267;DHT22;11802;53.160;8.214;2023-05-10T02:20:47;14.60;99.90
23267;DHT22;11802;53.160;8.214;2023-05-10T02:23:14;14.60;99.90
23267;DHT22;11802;53.160;8.214;2023-05-10T02:25:43;14.50;99.90
23267;DHT22;11802;53.160;8.214;2023-05-10T02:28:10;14.50;99.90
23267;DHT22;11802;53.160;8.214;2023-05-10T02:30:37;14.60;99.90
23267;DHT22;11802;53.160;8.214;2023-05-10T02:33:04;14.60;99.90
23267;DHT22;11802;53.160;8.214;2023-05-10T02:35:32;14.60;99.90
23267;DHT22;11802;53.160;8.214;2023-05-10T02:37:59;14.60;99.90
23267;DHT22;11802;53.160;8.214;2023-05-10T02:40:25;14.60;99.90
23267;DHT22;11802;53.160;8.214;2023-05-10T02:42:54;14.60;99.90
23267;DHT22;11802;53.160;8.214;2023-05-10T02:45:25;14.60;99.90
23267;DHT22;11802;53.160;8.214;2023-05-10T02:47:54;14.60;99.90
23267;DHT22;11802;53.160;8.214;2023-05-10T02:50:20;14.60;99.90
23267;DHT22;11802;53.160;8.214;2023-05-10T02:52:54;14.60;99.90
23267;DHT22;11802;53.160;8.214;2023-05-10T02:55:25;14.60;99.90
23267;DHT22;11802;53.160;8.214;2023-05-10T02:57:56;14.60;99.90
23267;DHT22;11802;53.160;8.214;2023-05-10T03:00:24;14.60;99.90
23267;DHT22;11802;53.160;8.214;2023-05-10T03:02:50;14.50;99.90
23267;DHT22;11802;53.160;8.214;2023-05-10T03:05:15;14.60;99.90
23267;DHT22;11802;53.160;8.214;2023-05-10T03:07:41;14.60;99.90
23267;DHT22;11802;53.160;8.214;2023-05-10T03:10:07;14.70;99.90
23267;DHT22;11802;53.160;8.214;2023-05-10T03:12:56;14.70;99.90
23267;DHT22;11802;53.160;8.214;2023-05-10T03:18:28;14.70;99.90
23267;DHT22;11802;53.160;8.214;2023-05-10T03:21:03;14.80;99.90
23267;DHT22;11802;53.160;8.214;2023-05-10T03:23:36;14.80;99.90
23267;DHT22;11802;53.160;8.214;2023-05-10T03:26:04;14.70;99.90
23267;DHT22;11802;53.160;8.214;2023-05-10T03:28:31;14.60;99.90
23267;DHT22;11802;53.160;8.214;2023-05-10T03:30:59;14.60;99.90
23267;DHT22;11802;53.160;8.214;2023-05-10T03:33:25;14.60;99.90
23267;DHT22;11802;53.160;8.214;2023-05-10T03:35:50;14.60;99.90
23267;DHT22;11802;53.160;8.214;2023-05-10T03:38:16;14.60;99.90
23267;DHT22;11802;53.160;8.214;2023-05-10T03:40:41;14.60;99.90
23267;DHT22;11802;53.160;8.214;2023-05-10T03:43:07;14.50;99.90
23267;DHT22;11802;53.160;8.214;2023-05-10T03:45:33;14.60;99.90
23267;DHT22;11802;53.160;8.214;2023-05-10T03:47:58;14.50;99.90
23267;DHT22;11802;53.160;8.214;2023-05-10T03:50:24;14.50;99.90
23267;DHT22;11802;53.160;8.214;2023-05-10T03:52:50;14.50;99.90
23267;DHT22;11802;53.160;8.214;2023-05-10T03:55:16;14.50;99.90
23267;DHT22;11802;53.160;8.214;2023-05-10T03:57:42;14.50;99.90
23267;DHT22;11802;53.160;8.214;2023-05-10T04:00:08;14.50;99.90
23267;DHT22;11802;53.160;8.214;2023-05-10T04:02:34;14.50;99.90
23267;DHT22;11802;53.160;8.214;2023-05-10T04:04:59;14.50;99.90
23267;DHT22;11802;53.160;8.214;2023-05-10T04:07:24;14.50;99.90
23267;DHT22;11802;53.160;8.214;2023-05-10T04:09:50;14.50;99.90
23267;DHT22;11802;53.160;8.214;2023-05-10T04:12:16;14.50;99.90
23267;DHT22;11802;53.160;8.214;2023-05-10T04:14:41;14.40;99.90
23267;DHT22;11802;53.160;8.214;2023-05-10T04:17:07;14.40;99.90
23267;DHT22;11802;53.160;8.214;2023-05-10T04:19:32;14.40;99.90
23267;DHT22;11802;53.160;8.214;2023-05-10T04:21:58;14.40;99.90
23267;DHT22;11802;53.160;8.214;2023-05-10T04:24:24;14.40;99.90
23267;DHT22;11802;53.160;8.214;2023-05-10T04:26:50;14.30;99.90
23267;DHT22;11802;53.160;8.214;2023-05-10T04:29:15;14.30;99.90
23267;DHT22;11802;53.160;8.214;2023-05-10T04:31:41;14.30;99.90
23267;DHT22;11802;53.160;8.214;2023-05-10T04:34:06;14.20;99.90
23267;DHT22;11802;53.160;8.214;2023-05-10T04:36:32;14.30;99.90
23267;DHT22;11802;53.160;8.214;2023-05-10T04:38:59;14.30;99.90
23267;DHT22;11802;53.160;8.214;2023-05-10T04:41:24;14.20;99.90
23267;DHT22;11802;53.160;8.214;2023-05-10T04:43:50;14.20;99.90
23267;DHT22;11802;53.160;8.214;2023-05-10T04:46:16;14.20;99.90
23267;DHT22;11802;53.160;8.214;2023-05-10T04:48:41;14.20;99.90
23267;DHT22;11802;53.160;8.214;2023-05-10T04:51:07;14.30;99.90
23267;DHT22;11802;53.160;8.214;2023-05-10T04:53:32;14.20;99.90
23267;DHT22;11802;53.160;8.214;2023-05-10T04:55:58;14.30;99.90
23267;DHT22;11802;53.160;8.214;2023-05-10T04:58:24;14.30;99.90
23267;DHT22;11802;53.160;8.214;2023-05-10T05:00:49;14.30;99.90
23267;DHT22;11802;53.160;8.214;2023-05-10T05:03:15;14.20;99.90
23267;DHT22;11802;53.160;8.214;2023-05-10T05:05:40;14.20;99.90
23267;DHT22;11802;53.160;8.214;2023-05-10T05:08:06;14.20;99.90
23267;DHT22;11802;53.160;8.214;2023-05-10T05:10:31;14.20;99.90
23267;DHT22;11802;53.160;8.214;2023-05-10T05:12:57;14.10;99.90
23267;DHT22;11802;53.160;8.214;2023-05-10T05:15:22;14.10;99.90
23267;DHT22;11802;53.160;8.214;2023-05-10T05:17:48;14.00;99.90
23267;DHT22;11802;53.160;8.214;2023-05-10T05:20:14;14.00;99.90
23267;DHT22;11802;53.160;8.214;2023-05-10T05:22:39;14.00;99.90
23267;DHT22;11802;53.160;8.214;2023-05-10T05:25:05;14.00;99.90
23267;DHT22;11802;53.160;8.214;2023-05-10T05:27:31;14.10;99.90
23267;DHT22;11802;53.160;8.214;2023-05-10T05:29:57;14.00;99.90
23267;DHT22;11802;53.160;8.214;2023-05-10T05:32:23;14.10;99.90
23267;DHT22;11802;53.160;8.214;2023-05-10T05:34:49;14.10;99.90
23267;DHT22;11802;53.160;8.214;2023-05-10T05:37:15;14.10;99.90
23267;DHT22;11802;53.160;8.214;2023-05-10T05:39:41;14.10;99.90
23267;DHT22;11802;53.160;8.214;2023-05-10T05:42:08;14.10;99.90
23267;DHT22;11802;53.160;8.214;2023-05-10T05:44:33;14.20;99.90
23267;DHT22;11802;53.160;8.214;2023-05-10T05:46:59;14.20;99.90
23267;DHT22;11802;53.160;8.214;2023-05-10T05:49:24;14.30;99.90
23267;DHT22;11802;53.160;8.214;2023-05-10T05:51:50;14.30;99.90
23267;DHT22;11802;53.160;8.214;2023-05-10T05:54:16;14.30;99.90
23267;DHT22;11802;53.160;8.214;2023-05-10T05:56:41;14.30;99.90
23267;DHT22;11802;53.160;8.214;2023-05-10T05:59:07;14.30;99.90
23267;DHT22;11802;53.160;8.214;2023-05-10T06:01:33;14.40;99.90
23267;DHT22;11802;53.160;8.214;2023-05-10T06:03:58;14.40;99.90
23267;DHT22;11802;53.160;8.214;2023-05-10T06:06:24;14.40;99.90
23267;DHT22;11802;53.160;8.214;2023-05-10T06:08:49;14.50;99.90
23267;DHT22;11802;53.160;8.214;2023-05-10T06:11:15;14.60;99.90
23267;DHT22;11802;53.160;8.214;2023-05-10T06:13:40;14.60;99.90
23267;DHT22;11802;53.160;8.214;2023-05-10T06:16:07;14.70;99.90
23267;DHT22;11802;53.160;8.214;2023-05-10T06:18:33;14.80;99.90
23267;DHT22;11802;53.160;8.214;2023-05-10T06:20:59;14.90;99.90
23267;DHT22;11802;53.160;8.214;2023-05-10T06:23:25;15.00;99.90
23267;DHT22;11802;53.160;8.214;2023-05-10T06:25:51;15.00;99.90
23267;DHT22;11802;53.160;8.214;2023-05-10T06:28:17;15.00;99.90
23267;DHT22;11802;53.160;8.214;2023-05-10T06:30:42;14.90;99.90
23267;DHT22;11802;53.160;8.214;2023-05-10T06:33:08;14.90;99.90
23267;DHT22;11802;53.160;8.214;2023-05-10T06:35:34;14.90;99.90
23267;DHT22;11802;53.160;8.214;2023-05-10T06:37:59;15.10;99.90
23267;DHT22;11802;53.160;8.214;2023-05-10T06:40:25;15.10;99.90
23267;DHT22;11802;53.160;8.214;2023-05-10T06:42:50;15.30;99.90
23267;DHT22;11802;53.160;8.214;2023-05-10T06:45:16;15.40;99.90
23267;DHT22;11802;53.160;8.214;2023-05-10T06:47:42;15.40;99.90
23267;DHT22;11802;53.160;8.214;2023-05-10T06:50:08;15.50;99.90
23267;DHT22;11802;53.160;8.214;2023-05-10T06:52:34;15.40;99.90
23267;DHT22;11802;53.160;8.214;2023-05-10T06:55:00;15.50;99.90
23267;DHT22;11802;53.160;8.214;2023-05-10T06:57:25;15.60;99.90
23267;DHT22;11802;53.160;8.214;2023-05-10T06:59:51;15.60;99.90
23267;DHT22;11802;53.160;8.214;2023-05-10T07:02:17;15.70;99.90
23267;DHT22;11802;53.160;8.214;2023-05-10T07:04:43;15.80;99.90
23267;DHT22;11802;53.160;8.214;2023-05-10T07:07:08;15.60;99.90
23267;DHT22;11802;53.160;8.214;2023-05-10T07:09:34;15.80;99.90
23267;DHT22;11802;53.160;8.214;2023-05-10T07:11:59;15.80;99.90
23267;DHT22;11802;53.160;8.214;2023-05-10T07:14:27;15.80;99.90
23267;DHT22;11802;53.160;8.214;2023-05-10T07:16:52;15.70;99.90
23267;DHT22;11802;53.160;8.214;2023-05-10T07:19:18;15.80;99.90
23267;DHT22;11802;53.160;8.214;2023-05-10T07:21:45;15.70;99.90
23267;DHT22;11802;53.160;8.214;2023-05-10T07:24:45;15.70;99.90
23267;DHT22;11802;53.160;8.214;2023-05-10T07:27:31;15.60;99.90
23267;DHT22;11802;53.160;8.214;2023-05-10T07:29:57;15.50;99.90
23267;DHT22;11802;53.160;8.214;2023-05-10T07:32:23;15.40;99.90
23267;DHT22;11802;53.160;8.214;2023-05-10T07:34:49;15.30;99.90
23267;DHT22;11802;53.160;8.214;2023-05-10T07:37:14;15.30;99.90
23267;DHT22;11802;53.160;8.214;2023-05-10T07:39:40;15.40;99.90
23267;DHT22;11802;53.160;8.214;2023-05-10T07:42:06;15.50;99.90
23267;DHT22;11802;53.160;8.214;2023-05-10T07:44:31;15.60;99.90
23267;DHT22;11802;53.160;8.214;2023-05-10T07:46:57;15.50;99.90
23267;DHT22;11802;53.160;8.214;2023-05-10T07:49:23;15.50;99.90
23267;DHT22;11802;53.160;8.214;2023-05-10T07:51:52;15.50;99.90
23267;DHT22;11802;53.160;8.214;2023-05-10T07:54:18;15.50;99.90
23267;DHT22;11802;53.160;8.214;2023-05-10T07:56:46;15.80;99.90
23267;DHT22;11802;53.160;8.214;2023-05-10T07:59:16;15.80;99.90
23267;DHT22;11802;53.160;8.214;2023-05-10T08:01:42;15.80;99.90
23267;DHT22;11802;53.160;8.214;2023-05-10T08:04:08;15.90;99.90
23267;DHT22;11802;53.160;8.214;2023-05-10T08:06:34;16.00;99.90
23267;DHT22;11802;53.160;8.214;2023-05-10T08:09:00;15.80;99.90
23267;DHT22;11802;53.160;8.214;2023-05-10T08:11:25;15.70;99.90
23267;DHT22;11802;53.160;8.214;2023-05-10T08:13:53;15.60;99.90
23267;DHT22;11802;53.160;8.214;2023-05-10T08:16:18;15.70;99.90
23267;DHT22;11802;53.160;8.214;2023-05-10T08:18:46;15.90;99.90
23267;DHT22;11802;53.160;8.214;2023-05-10T08:21:12;15.90;99.90
23267;DHT22;11802;53.160;8.214;2023-05-10T08:23:38;16.10;99.90
23267;DHT22;11802;53.160;8.214;2023-05-10T08:26:04;16.20;99.90
23267;DHT22;11802;53.160;8.214;2023-05-10T08:28:30;16.30;99.90
23267;DHT22;11802;53.160;8.214;2023-05-10T08:30:56;16.30;99.90
23267;DHT22;11802;53.160;8.214;2023-05-10T08:33:21;16.40;99.90
23267;DHT22;11802;53.160;8.214;2023-05-10T08:35:47;16.10;99.90
23267;DHT22;11802;53.160;8.214;2023-05-10T08:38:12;16.00;99.90
23267;DHT22;11802;53.160;8.214;2023-05-10T08:40:43;16.10;99.90
23267;DHT22;11802;53.160;8.214;2023-05-10T08:43:10;16.10;99.90
23267;DHT22;11802;53.160;8.214;2023-05-10T08:45:41;16.00;99.90
23267;DHT22;11802;53.160;8.214;2023-05-10T08:48:09;16.10;99.90
23267;DHT22;11802;53.160;8.214;2023-05-10T08:50:39;16.30;99.90
23267;DHT22;11802;53.160;8.214;2023-05-10T08:53:08;16.40;99.90
23267;DHT22;11802;53.160;8.214;2023-05-10T08:55:34;16.80;99.90
23267;DHT22;11802;53.160;8.214;2023-05-10T08:58:02;16.90;99.90
23267;DHT22;11802;53.160;8.214;2023-05-10T09:00:28;16.80;99.90
23267;DHT22;11802;53.160;8.214;2023-05-10T09:06:19;16.60;99.90
23267;DHT22;11802;53.160;8.214;2023-05-10T09:08:46;16.50;99.90
23267;DHT22;11802;53.160;8.214;2023-05-10T09:11:12;16.50;99.90
23267;DHT22;11802;53.160;8.214;2023-05-10T09:13:38;16.50;99.90
23267;DHT22;11802;53.160;8.214;2023-05-10T09:16:04;16.30;99.90
23267;DHT22;11802;53.160;8.214;2023-05-10T09:18:30;16.20;99.90
23267;DHT22;11802;53.160;8.214;2023-05-10T09:20:56;16.20;99.90
23267;DHT22;11802;53.160;8.214;2023-05-10T09:23:21;16.10;99.90
23267;DHT22;11802;53.160;8.214;2023-05-10T09:25:47;16.10;99.90
23267;DHT22;11802;53.160;8.214;2023-05-10T09:28:13;16.10;99.90
23267;DHT22;11802;53.160;8.214;2023-05-10T09:30:38;16.00;99.90
23267;DHT22;11802;53.160;8.214;2023-05-10T09:33:05;16.10;99.90
23267;DHT22;11802;53.160;8.214;2023-05-10T09:35:32;16.10;99.90
23267;DHT22;11802;53.160;8.214;2023-05-10T09:38:08;16.20;99.90
23267;DHT22;11802;53.160;8.214;2023-05-10T09:40:36;16.40;99.90
23267;DHT22;11802;53.160;8.214;2023-05-10T09:43:13;16.60;99.90
23267;DHT22;11802;53.160;8.214;2023-05-10T09:45:41;16.30;99.90
23267;DHT22;11802;53.160;8.214;2023-05-10T09:48:06;16.30;99.90
23267;DHT22;11802;53.160;8.214;2023-05-10T09:50:32;16.30;99.90
23267;DHT22;11802;53.160;8.214;2023-05-10T09:52:59;16.50;99.90
23267;DHT22;11802;53.160;8.214;2023-05-10T09:55:46;16.60;99.90
23267;DHT22;11802;53.160;8.214;2023-05-10T09:58:13;16.70;99.90
23267;DHT22;11802;53.160;8.214;2023-05-10T10:00:41;17.00;99.90
23267;DHT22;11802;53.160;8.214;2023-05-10T10:03:13;17.40;99.90
23267;DHT22;11802;53.160;8.214;2023-05-10T10:05:40;17.80;99.90
23267;DHT22;11802;53.160;8.214;2023-05-10T10:08:08;18.40;99.90
23267;DHT22;11802;53.160;8.214;2023-05-10T10:10:33;19.10;99.90
23267;DHT22;11802;53.160;8.214;2023-05-10T10:12:59;19.40;99.90
23267;DHT22;11802;53.160;8.214;2023-05-10T10:15:26;19.90;99.90
23267;DHT22;11802;53.160;8.214;2023-05-10T10:17:52;19.90;99.90
23267;DHT22;11802;53.160;8.214;2023-05-10T10:20:19;19.40;99.90
23267;DHT22;11802;53.160;8.214;2023-05-10T10:22:45;19.00;99.90
23267;DHT22;11802;53.160;8.214;2023-05-10T10:25:13;19.10;99.90
23267;DHT22;11802;53.160;8.214;2023-05-10T10:33:24;18.40;99.90
23267;DHT22;11802;53.160;8.214;2023-05-10T10:36:04;18.30;99.90
23267;DHT22;11802;53.160;8.214;2023-05-10T10:38:59;18.20;99.90
23267;DHT22;11802;53.160;8.214;2023-05-10T10:41:39;17.90;99.90
23267;DHT22;11802;53.160;8.214;2023-05-10T10:49:30;17.40;99.90
23267;DHT22;11802;53.160;8.214;2023-05-10T10:52:30;17.00;99.90
23267;DHT22;11802;53.160;8.214;2023-05-10T10:55:14;17.20;99.90
23267;DHT22;11802;53.160;8.214;2023-05-10T11:02:46;18.40;99.90
23267;DHT22;11802;53.160;8.214;2023-05-10T11:05:41;18.40;99.90
23267;DHT22;11802;53.160;8.214;2023-05-10T11:08:17;18.30;99.90
23267;DHT22;11802;53.160;8.214;2023-05-10T11:15:54;18.20;99.90
23267;DHT22;11802;53.160;8.214;2023-05-10T11:18:23;18.20;99.90
23267;DHT22;11802;53.160;8.214;2023-05-10T11:21:01;18.60;99.90
23267;DHT22;11802;53.160;8.214;2023-05-10T11:26:09;18.90;99.90
23267;DHT22;11802;53.160;8.214;2023-05-10T11:28:40;18.90;99.90
23267;DHT22;11802;53.160;8.214;2023-05-10T11:31:06;19.00;99.90
23267;DHT22;11802;53.160;8.214;2023-05-10T11:33:42;18.70;99.90
23267;DHT22;11802;53.160;8.214;2023-05-10T11:36:14;18.30;99.90
23267;DHT22;11802;53.160;8.214;2023-05-10T11:38:40;18.00;99.90
23267;DHT22;11802;53.160;8.214;2023-05-10T11:41:11;17.80;99.90
23267;DHT22;11802;53.160;8.214;2023-05-10T11:43:39;17.50;99.90
23267;DHT22;11802;53.160;8.214;2023-05-10T11:46:09;17.40;99.90
23267;DHT22;11802;53.160;8.214;2023-05-10T11:48:35;17.50;99.90
23267;DHT22;11802;53.160;8.214;2023-05-10T11:51:01;17.40;99.90
23267;DHT22;11802;53.160;8.214;2023-05-10T11:53:29;17.30;99.90
23267;DHT22;11802;53.160;8.214;2023-05-10T11:55:54;17.30;99.90
23267;DHT22;11802;53.160;8.214;2023-05-10T11:58:20;17.00;99.90
23267;DHT22;11802;53.160;8.214;2023-05-10T12:00:47;17.00;99.90
23267;DHT22;11802;53.160;8.214;2023-05-10T12:03:13;17.00;99.90
23267;DHT22;11802;53.160;8.214;2023-05-10T12:05:38;16.90;99.90
23267;DHT22;11802;53.160;8.214;2023-05-10T12:08:19;16.80;99.90
23267;DHT22;11802;53.160;8.214;2023-05-10T12:10:45;16.80;99.90
23267;DHT22;11802;53.160;8.214;2023-05-10T12:13:12;16.90;99.90
23267;DHT22;11802;53.160;8.214;2023-05-10T12:15:39;16.80;99.90
23267;DHT22;11802;53.160;8.214;2023-05-10T12:18:05;17.00;99.90
23267;DHT22;11802;53.160;8.214;2023-05-10T12:20:31;17.20;99.90
23267;DHT22;11802;53.160;8.214;2023-05-10T12:22:58;17.20;99.90
23267;DHT22;11802;53.160;8.214;2023-05-10T12:25:32;17.10;99.90
23267;DHT22;11802;53.160;8.214;2023-05-10T12:27:59;17.10;99.90
23267;DHT22;11802;53.160;8.214;2023-05-10T12:30:29;17.00;99.90
23267;DHT22;11802;53.160;8.214;2023-05-10T12:33:02;16.80;99.90
23267;DHT22;11802;53.160;8.214;2023-05-10T12:35:31;16.80;99.90
23267;DHT22;11802;53.160;8.214;2023-05-10T12:37:57;16.60;99.90
23267;DHT22;11802;53.160;8.214;2023-05-10T12:40:23;16.60;99.90
23267;DHT22;11802;53.160;8.214;2023-05-10T12:42:48;16.60;99.90
23267;DHT22;11802;53.160;8.214;2023-05-10T12:45:14;16.60;99.90
23267;DHT22;11802;53.160;8.214;2023-05-10T12:47:46;16.80;99.90
23267;DHT22;11802;53.160;8.214;2023-05-10T12:50:22;17.10;99.90
23267;DHT22;11802;53.160;8.214;2023-05-10T12:52:49;17.40;99.90
23267;DHT22;11802;53.160;8.214;2023-05-10T12:55:15;17.80;99.90
23267;DHT22;11802;53.160;8.214;2023-05-10T12:57:40;18.10;99.90
23267;DHT22;11802;53.160;8.214;2023-05-10T13:00:06;18.30;99.90
23267;DHT22;11802;53.160;8.214;2023-05-10T13:02:32;18.40;99.90
23267;DHT22;11802;53.160;8.214;2023-05-10T13:04:57;18.50;99.90
23267;DHT22;11802;53.160;8.214;2023-05-10T13:07:23;18.50;99.90
23267;DHT22;11802;53.160;8.214;2023-05-10T13:09:48;18.60;99.90
23267;DHT22;11802;53.160;8.214;2023-05-10T13:12:14;18.50;99.90
23267;DHT22;11802;53.160;8.214;2023-05-10T13:14:39;18.50;99.90
23267;DHT22;11802;53.160;8.214;2023-05-10T13:17:05;18.40;99.90
23267;DHT22;11802;53.160;8.214;2023-05-10T13:19:31;18.30;99.90
23267;DHT22;11802;53.160;8.214;2023-05-10T13:21:56;18.00;99.90
23267;DHT22;11802;53.160;8.214;2023-05-10T13:24:23;17.90;99.90
23267;DHT22;11802;53.160;8.214;2023-05-10T13:26:48;17.70;99.90
23267;DHT22;11802;53.160;8.214;2023-05-10T13:29:15;17.50;99.90
23267;DHT22;11802;53.160;8.214;2023-05-10T13:31:43;17.30;99.90
23267;DHT22;11802;53.160;8.214;2023-05-10T13:34:08;17.30;99.90
23267;DHT22;11802;53.160;8.214;2023-05-10T13:36:34;17.30;99.90
23267;DHT22;11802;53.160;8.214;2023-05-10T13:38:59;17.30;99.90
23267;DHT22;11802;53.160;8.214;2023-05-10T13:41:27;17.30;99.90
23267;DHT22;11802;53.160;8.214;2023-05-10T13:43:53;17.20;99.90
23267;DHT22;11802;53.160;8.214;2023-05-10T13:46:18;17.10;99.90
23267;DHT22;11802;53.160;8.214;2023-05-10T13:48:44;17.20;99.90
23267;DHT22;11802;53.160;8.214;2023-05-10T13:51:10;17.50;99.90
23267;DHT22;11802;53.160;8.214;2023-05-10T13:53:35;17.90;99.90
23267;DHT22;11802;53.160;8.214;2023-05-10T13:56:01;18.40;99.90
23267;DHT22;11802;53.160;8.214;2023-05-10T13:58:28;18.70;99.90
23267;DHT22;11802;53.160;8.214;2023-05-10T14:00:53;19.10;99.90
23267;DHT22;11802;53.160;8.214;2023-05-10T14:03:19;19.50;99.90
23267;DHT22;11802;53.160;8.214;2023-05-10T14:05:44;19.50;18.10
23267;DHT22;11802;53.160;8.214;2023-05-10T14:08:10;19.80;25.60
23267;DHT22;11802;53.160;8.214;2023-05-10T14:10:38;19.80;1.00
23267;DHT22;11802;53.160;8.214;2023-05-10T14:13:04;19.70;1.00
23267;DHT22;11802;53.160;8.214;2023-05-10T14:15:30;19.50;1.00
23267;DHT22;11802;53.160;8.214;2023-05-10T14:17:55;19.30;1.00
23267;DHT22;11802;53.160;8.214;2023-05-10T14:20:21;19.00;1.00
23267;DHT22;11802;53.160;8.214;2023-05-10T14:22:46;18.60;1.00
23267;DHT22;11802;53.160;8.214;2023-05-10T14:25:13;18.50;1.00
23267;DHT22;11802;53.160;8.214;2023-05-10T14:27:38;18.30;19.20
23267;DHT22;11802;53.160;8.214;2023-05-10T14:30:04;18.20;49.50
23267;DHT22;11802;53.160;8.214;2023-05-10T14:32:30;18.20;57.90
23267;DHT22;11802;53.160;8.214;2023-05-10T14:34:57;18.20;85.30
23267;DHT22;11802;53.160;8.214;2023-05-10T14:37:22;18.00;16.80
23267;DHT22;11802;53.160;8.214;2023-05-10T14:39:48;17.90;38.30
23267;DHT22;11802;53.160;8.214;2023-05-10T14:42:13;17.90;89.00
23267;DHT22;11802;53.160;8.214;2023-05-10T14:44:39;18.00;42.10
23267;DHT22;11802;53.160;8.214;2023-05-10T14:47:04;18.10;69.40
23267;DHT22;11802;53.160;8.214;2023-05-10T14:49:30;18.40;52.10
23267;DHT22;11802;53.160;8.214;2023-05-10T14:51:56;18.50;41.10
23267;DHT22;11802;53.160;8.214;2023-05-10T14:54:21;18.60;1.00
23267;DHT22;11802;53.160;8.214;2023-05-10T14:56:47;18.80;1.00
23267;DHT22;11802;53.160;8.214;2023-05-10T14:59:15;18.70;1.00
23267;DHT22;11802;53.160;8.214;2023-05-10T15:01:40;18.80;1.00
23267;DHT22;11802;53.160;8.214;2023-05-10T15:04:07;18.80;1.00
23267;DHT22;11802;53.160;8.214;2023-05-10T15:06:34;18.80;1.00
23267;DHT22;11802;53.160;8.214;2023-05-10T15:09:00;18.70;1.00
23267;DHT22;11802;53.160;8.214;2023-05-10T15:11:26;18.70;1.00
23267;DHT22;11802;53.160;8.214;2023-05-10T15:13:52;18.70;1.00
23267;DHT22;11802;53.160;8.214;2023-05-10T15:16:17;18.70;1.00
23267;DHT22;11802;53.160;8.214;2023-05-10T15:18:43;18.50;1.00
23267;DHT22;11802;53.160;8.214;2023-05-10T15:21:09;18.50;1.00
23267;DHT22;11802;53.160;8.214;2023-05-10T15:23:34;18.50;1.00
23267;DHT22;11802;53.160;8.214;2023-05-10T15:26:00;18.60;1.00
23267;DHT22;11802;53.160;8.214;2023-05-10T15:28:26;18.50;1.00
23267;DHT22;11802;53.160;8.214;2023-05-10T15:30:51;18.60;1.00
23267;DHT22;11802;53.160;8.214;2023-05-10T15:33:17;18.50;1.00
23267;DHT22;11802;53.160;8.214;2023-05-10T15:35:43;18.50;1.00
23267;DHT22;11802;53.160;8.214;2023-05-10T15:38:09;18.60;1.00
23267;DHT22;11802;53.160;8.214;2023-05-10T15:40:34;18.70;1.00
23267;DHT22;11802;53.160;8.214;2023-05-10T15:43:00;18.70;1.00
23267;DHT22;11802;53.160;8.214;2023-05-10T15:45:26;18.70;1.00
23267;DHT22;11802;53.160;8.214;2023-05-10T15:47:51;18.80;1.00
23267;DHT22;11802;53.160;8.214;2023-05-10T15:50:17;18.70;1.00
23267;DHT22;11802;53.160;8.214;2023-05-10T15:52:43;18.90;1.00
23267;DHT22;11802;53.160;8.214;2023-05-10T15:55:08;18.90;99.90
23267;DHT22;11802;53.160;8.214;2023-05-10T15:57:38;19.10;99.90
23267;DHT22;11802;53.160;8.214;2023-05-10T16:00:05;19.00;99.90
23267;DHT22;11802;53.160;8.214;2023-05-10T16:02:31;18.80;99.90
23267;DHT22;11802;53.160;8.214;2023-05-10T16:04:56;18.80;99.90
23267;DHT22;11802;53.160;8.214;2023-05-10T16:07:22;18.90;99.90
23267;DHT22;11802;53.160;8.214;2023-05-10T16:09:48;19.00;99.90
23267;DHT22;11802;53.160;8.214;2023-05-10T16:12:14;19.10;1.00